Time;durP1;ratioP1;P1;durP2;ratioP2;P2;SDS_P1;SDS_P2;PMS_P1;PMS_P2;Temp;Humidity;BMP_temperature;BMP_pressure;BME280_temperature;BME280_humidity;BME280_pressure;Samples;Min_cycle;Max_cycle;Signal;HPM_P1;HPM_P2
2023/07/01 00:01:39;;;;;;;17.55;11.77;;;;;;;;;;5092703;28;20023;-52
2023/07/01 00:04:04;;;;;;;18.42;11.95;;;;;;;;;;5092753;28;20040;-55
2023/07/01 00:06:30;;;;;;;18.13;11.60;;;;;;;;;;5092439;28;20433;-51
2023/07/01 00:08:56;;;;;;;18.85;11.50;;;;;;;;;;5091165;28;20028;-54
2023/07/01 00:11:22;;;;;;;21.65;12.27;;;;;;;;;;5092249;28;20031;-58
2023/07/01 00:13:49;;;;;;;17.35;12.40;;;;;;;;;;5092139;28;20024;-54
2023/07/01 00:16:15;;;;;;;18.65;12.10;;;;;;;;;;5092059;28;20418;-54
2023/07/01 00:18:42;;;;;;;21.13;12.07;;;;;;;;;;5092270;28;20407;-53
2023/07/01 00:21:08;;;;;;;18.13;11.98;;;;;;;;;;5092480;28;20031;-52
2023/07/01 00:23:34;;;;;;;20.75;11.63;;;;;;;;;;5092547;28;20028;-56
2023/07/01 00:26:00;;;;;;;17.92;12.07;;;;;;;;;;5092212;28;20153;-51
2023/07/01 00:28:26;;;;;;;19.55;12.02;;;;;;;;;;5092381;28;20032;-55
2023/07/01 00:30:52;;;;;;;17.65;11.80;;;;;;;;;;5092519;28;20032;-50
2023/07/01 00:33:18;;;;;;;17.02;11.88;;;;;;;;;;5092173;28;20035;-56
2023/07/01 00:35:44;;;;;;;17.35;12.23;;;;;;;;;;5090907;28;20020;-54
2023/07/01 00:38:10;;;;;;;17.08;12.27;;;;;;;;;;5090995;28;20093;-54
2023/07/01 00:40:36;;;;;;;18.50;11.80;;;;;;;;;;5092125;28;20365;-56
2023/07/01 00:43:02;;;;;;;16.95;11.82;;;;;;;;;;5091803;28;20078;-50
2023/07/01 00:45:28;;;;;;;19.60;12.13;;;;;;;;;;5092087;28;20024;-52
2023/07/01 00:47:54;;;;;;;18.75;11.68;;;;;;;;;;5090879;28;20036;-53
2023/07/01 00:50:20;;;;;;;21.38;13.00;;;;;;;;;;5092175;28;20100;-55
2023/07/01 00:52:47;;;;;;;16.85;11.68;;;;;;;;;;5090821;28;20123;-55
2023/07/01 00:55:13;;;;;;;18.92;11.82;;;;;;;;;;5092073;28;20059;-55
2023/07/01 00:57:39;;;;;;;19.10;11.40;;;;;;;;;;5092239;28;20426;-56
2023/07/01 01:00:10;;;;;;;18.38;12.15;;;;;;;;;;5091915;28;20093;-56
2023/07/01 01:03:00;;;;;;;18.20;11.68;;;;;;;;;;5091876;28;20020;-56
2023/07/01 01:05:29;;;;;;;19.35;12.07;;;;;;;;;;5090285;28;20043;-57
2023/07/01 01:08:04;;;;;;;17.98;12.68;;;;;;;;;;5091916;28;20024;-54
2023/07/01 01:10:32;;;;;;;18.90;12.52;;;;;;;;;;5091547;28;20426;-57
2023/07/01 01:12:58;;;;;;;19.02;12.57;;;;;;;;;;5091502;28;20044;-54
2023/07/01 01:15:25;;;;;;;18.02;11.90;;;;;;;;;;5090316;28;20016;-51
2023/07/01 01:17:52;;;;;;;19.95;12.43;;;;;;;;;;5091776;28;20077;-53
2023/07/01 01:20:20;;;;;;;18.60;12.27;;;;;;;;;;5091715;28;20021;-56
2023/07/01 01:22:55;;;;;;;20.80;11.73;;;;;;;;;;5091668;28;20145;-58
2023/07/01 01:25:27;;;;;;;18.95;11.93;;;;;;;;;;5091415;28;20039;-51
2023/07/01 01:27:53;;;;;;;19.80;12.02;;;;;;;;;;5091653;28;20107;-55
2023/07/01 01:30:22;;;;;;;19.25;12.20;;;;;;;;;;5091597;28;20028;-51
2023/07/01 01:32:49;;;;;;;19.17;11.95;;;;;;;;;;5091408;28;20027;-50
2023/07/01 01:35:15;;;;;;;17.67;12.30;;;;;;;;;;5091372;28;20522;-55
2023/07/01 01:37:40;;;;;;;18.35;11.80;;;;;;;;;;5091599;28;20028;-54
2023/07/01 01:40:14;;;;;;;19.38;11.80;;;;;;;;;;5091584;28;20024;-59
2023/07/01 01:42:41;;;;;;;17.63;12.35;;;;;;;;;;5089892;28;20476;-58
2023/07/01 01:45:07;;;;;;;17.92;11.35;;;;;;;;;;5090249;28;20026;-54
2023/07/01 01:47:34;;;;;;;17.17;12.75;;;;;;;;;;5091355;28;20039;-56
2023/07/01 01:50:02;;;;;;;16.92;11.50;;;;;;;;;;5091324;28;20028;-58
2023/07/01 01:52:29;;;;;;;17.00;11.55;;;;;;;;;;5091322;28;20396;-54
2023/07/01 01:54:56;;;;;;;20.08;11.85;;;;;;;;;;5091028;28;20024;-52
2023/07/01 01:57:22;;;;;;;20.60;11.75;;;;;;;;;;5091354;28;20392;-53
2023/07/01 01:59:48;;;;;;;18.65;11.60;;;;;;;;;;5090003;28;20016;-57
2023/07/01 02:02:14;;;;;;;18.88;12.13;;;;;;;;;;5089929;28;20035;-54
2023/07/01 02:04:40;;;;;;;18.27;12.50;;;;;;;;;;5091100;28;20027;-54
2023/07/01 02:07:06;;;;;;;20.10;11.77;;;;;;;;;;5091231;28;20020;-56
2023/07/01 02:09:33;;;;;;;17.50;11.82;;;;;;;;;;5090083;28;20031;-51
2023/07/01 02:11:58;;;;;;;17.45;11.93;;;;;;;;;;5091242;28;20480;-53
2023/07/01 02:14:25;;;;;;;19.20;12.05;;;;;;;;;;5090884;28;20027;-54
2023/07/01 02:16:51;;;;;;;18.95;11.85;;;;;;;;;;5091007;28;20027;-57
2023/07/01 02:19:18;;;;;;;18.20;11.70;;;;;;;;;;5085272;28;20025;-57
2023/07/01 02:21:44;;;;;;;18.98;12.00;;;;;;;;;;5084664;28;20032;-57
2023/07/01 02:24:10;;;;;;;19.88;11.80;;;;;;;;;;5095057;28;20081;-57
2023/07/01 02:26:36;;;;;;;16.98;11.50;;;;;;;;;;5094253;28;20387;-55
2023/07/01 02:29:02;;;;;;;17.02;11.82;;;;;;;;;;5096209;28;20081;-57
2023/07/01 02:31:28;;;;;;;17.92;11.48;;;;;;;;;;5094017;28;20028;-54
2023/07/01 02:33:55;;;;;;;18.13;12.05;;;;;;;;;;5094545;28;20027;-57
2023/07/01 02:36:21;;;;;;;18.27;11.73;;;;;;;;;;5085880;28;20044;-57
2023/07/01 02:38:47;;;;;;;16.95;11.27;;;;;;;;;;5094507;28;20027;-58
2023/07/01 02:41:13;;;;;;;21.67;11.85;;;;;;;;;;5094429;28;20481;-56
2023/07/01 02:43:39;;;;;;;17.02;11.18;;;;;;;;;;5094298;28;20040;-54
2023/07/01 02:46:05;;;;;;;17.75;11.63;;;;;;;;;;5093079;28;20123;-54
2023/07/01 02:48:31;;;;;;;17.23;11.90;;;;;;;;;;5094478;28;20106;-53
2023/07/01 02:50:57;;;;;;;17.15;11.27;;;;;;;;;;5094162;28;20023;-53
2023/07/01 02:53:23;;;;;;;18.45;11.30;;;;;;;;;;5077683;28;20102;-54
2023/07/01 02:55:49;;;;;;;16.35;11.23;;;;;;;;;;5073812;28;20024;-54
2023/07/01 02:58:15;;;;;;;18.88;11.70;;;;;;;;;;5073934;28;20369;-53
2023/07/01 03:00:41;;;;;;;16.80;11.02;;;;;;;;;;5074061;28;20029;-54
2023/07/01 03:03:07;;;;;;;16.52;10.85;;;;;;;;;;5073856;28;20034;-57
2023/07/01 03:05:36;;;;;;;16.33;10.85;;;;;;;;;;5073623;28;20032;-56
2023/07/01 03:08:04;;;;;;;18.00;10.73;;;;;;;;;;5073777;28;20025;-57
2023/07/01 03:10:30;;;;;;;19.52;11.15;;;;;;;;;;5073724;28;20557;-53
2023/07/01 03:12:56;;;;;;;17.08;10.70;;;;;;;;;;5073625;28;20028;-55
2023/07/01 03:15:22;;;;;;;18.00;11.43;;;;;;;;;;5073411;28;20400;-56
2023/07/01 03:17:48;;;;;;;17.90;11.32;;;;;;;;;;5073765;28;20021;-56
2023/07/01 03:20:23;;;;;;;17.63;10.93;;;;;;;;;;5073676;28;20085;-54
2023/07/01 03:22:52;;;;;;;19.48;11.60;;;;;;;;;;5073704;28;20503;-57
2023/07/01 03:25:18;;;;;;;16.60;10.95;;;;;;;;;;5073510;28;20044;-57
2023/07/01 03:27:45;;;;;;;17.08;11.00;;;;;;;;;;5072641;28;20112;-57
2023/07/01 03:30:15;;;;;;;18.90;11.07;;;;;;;;;;5073716;28;20451;-55
2023/07/01 03:32:42;;;;;;;19.48;11.50;;;;;;;;;;5072171;28;20036;-57
2023/07/01 03:35:09;;;;;;;17.23;11.07;;;;;;;;;;5072913;28;20024;-56
2023/07/01 03:37:35;;;;;;;17.00;11.27;;;;;;;;;;5073062;28;20025;-53
2023/07/01 03:40:02;;;;;;;17.33;10.85;;;;;;;;;;5073097;28;20025;-54
2023/07/01 03:42:28;;;;;;;19.05;10.35;;;;;;;;;;5071667;28;20028;-55
2023/07/01 03:44:54;;;;;;;17.30;10.75;;;;;;;;;;5072881;28;20119;-57
2023/07/01 03:47:20;;;;;;;15.90;10.10;;;;;;;;;;5071791;28;20122;-58
2023/07/01 03:49:46;;;;;;;19.88;10.88;;;;;;;;;;5072873;28;20024;-53
2023/07/01 03:52:12;;;;;;;16.52;10.30;;;;;;;;;;5071545;28;20032;-54
2023/07/01 03:54:37;;;;;;;19.33;11.10;;;;;;;;;;5071237;28;20020;-55
2023/07/01 03:57:03;;;;;;;16.30;10.20;;;;;;;;;;5071594;28;20494;-58
2023/07/01 03:59:29;;;;;;;18.50;10.50;;;;;;;;;;5072784;28;20094;-53
2023/07/01 04:01:55;;;;;;;19.98;11.13;;;;;;;;;;5072803;28;20025;-56
2023/07/01 04:04:21;;;;;;;18.02;10.38;;;;;;;;;;5072471;28;20400;-56
2023/07/01 04:06:47;;;;;;;16.42;10.32;;;;;;;;;;5072179;28;20089;-56
2023/07/01 04:09:13;;;;;;;17.05;10.60;;;;;;;;;;5085296;28;20048;-53
2023/07/01 04:11:40;;;;;;;16.98;10.10;;;;;;;;;;5082850;28;20067;-56
2023/07/01 04:14:06;;;;;;;18.92;10.50;;;;;;;;;;5086118;28;20052;-55
2023/07/01 04:16:32;;;;;;;17.33;9.65;;;;;;;;;;5092637;28;20062;-53
2023/07/01 04:18:59;;;;;;;16.02;10.10;;;;;;;;;;5092552;28;20028;-55
2023/07/01 04:21:25;;;;;;;17.40;10.45;;;;;;;;;;5092652;28;20040;-53
2023/07/01 04:23:52;;;;;;;16.17;10.60;;;;;;;;;;5080389;28;20103;-55
2023/07/01 04:26:18;;;;;;;17.45;9.77;;;;;;;;;;5072072;28;20051;-53
2023/07/01 04:28:43;;;;;;;16.67;9.95;;;;;;;;;;5072164;28;20442;-55
2023/07/01 04:31:10;;;;;;;16.77;10.20;;;;;;;;;;5072350;28;20052;-53
2023/07/01 04:33:35;;;;;;;18.52;10.77;;;;;;;;;;5070730;28;20115;-58
2023/07/01 04:36:02;;;;;;;16.63;10.13;;;;;;;;;;5071803;28;20055;-55
2023/07/01 04:38:28;;;;;;;15.88;10.60;;;;;;;;;;5070630;28;20384;-55
2023/07/01 04:40:54;;;;;;;17.55;10.90;;;;;;;;;;5072141;28;20020;-56
2023/07/01 04:43:20;;;;;;;18.33;10.57;;;;;;;;;;5071772;28;20115;-52
2023/07/01 04:45:46;;;;;;;17.10;10.93;;;;;;;;;;5071707;28;20029;-57
2023/07/01 04:48:12;;;;;;;16.33;10.65;;;;;;;;;;5072192;28;20039;-56
2023/07/01 04:50:38;;;;;;;18.00;10.95;;;;;;;;;;5072162;28;20032;-53
2023/07/01 04:53:04;;;;;;;16.30;10.68;;;;;;;;;;5072206;28;20046;-58
2023/07/01 04:55:30;;;;;;;19.33;10.70;;;;;;;;;;5084377;28;20016;-57
2023/07/01 04:57:56;;;;;;;18.02;10.93;;;;;;;;;;5079538;28;20012;-58
2023/07/01 05:00:22;;;;;;;18.25;10.32;;;;;;;;;;5072099;28;20028;-57
2023/07/01 05:02:48;;;;;;;18.98;10.77;;;;;;;;;;5071751;28;20423;-55
2023/07/01 05:05:14;;;;;;;15.77;10.70;;;;;;;;;;5071540;28;20028;-55
2023/07/01 05:07:40;;;;;;;16.45;11.00;;;;;;;;;;5070447;28;20408;-52
2023/07/01 05:10:06;;;;;;;17.38;10.73;;;;;;;;;;5071768;28;20103;-54
2023/07/01 05:12:32;;;;;;;17.63;10.85;;;;;;;;;;5071490;28;20058;-55
2023/07/01 05:14:58;;;;;;;17.35;10.70;;;;;;;;;;5070043;28;20032;-55
2023/07/01 05:17:24;;;;;;;16.08;10.60;;;;;;;;;;5071650;28;20056;-53
2023/07/01 05:19:50;;;;;;;17.95;10.82;;;;;;;;;;5071590;28;20025;-53
2023/07/01 05:22:16;;;;;;;16.95;10.85;;;;;;;;;;5071599;28;20027;-58
2023/07/01 05:24:42;;;;;;;16.60;10.77;;;;;;;;;;5071219;28;20040;-56
2023/07/01 05:27:08;;;;;;;19.10;10.90;;;;;;;;;;5071673;28;20040;-56
2023/07/01 05:29:34;;;;;;;17.55;11.15;;;;;;;;;;5071584;28;20044;-51
2023/07/01 05:32:00;;;;;;;17.85;11.73;;;;;;;;;;5071786;28;20044;-54
2023/07/01 05:34:26;;;;;;;16.52;10.35;;;;;;;;;;5071811;28;20070;-57
2023/07/01 05:36:52;;;;;;;16.13;10.55;;;;;;;;;;5070674;28;20046;-57
2023/07/01 05:39:18;;;;;;;15.45;10.73;;;;;;;;;;5070504;28;20029;-57
2023/07/01 05:41:45;;;;;;;15.80;10.60;;;;;;;;;;5070736;28;20024;-57
2023/07/01 05:44:11;;;;;;;18.00;11.00;;;;;;;;;;5072469;28;20122;-58
2023/07/01 05:46:39;;;;;;;16.42;10.43;;;;;;;;;;5071548;28;20102;-58
2023/07/01 05:49:04;;;;;;;17.50;10.63;;;;;;;;;;5071332;28;20028;-53
2023/07/01 05:51:31;;;;;;;15.90;10.30;;;;;;;;;;5071311;28;20036;-58
2023/07/01 05:53:57;;;;;;;16.70;10.70;;;;;;;;;;5071006;28;20485;-50
2023/07/01 05:56:23;;;;;;;21.25;11.20;;;;;;;;;;5072177;28;20075;-54
2023/07/01 05:58:49;;;;;;;16.77;10.55;;;;;;;;;;5075127;28;20036;-53
2023/07/01 06:01:15;;;;;;;17.45;10.50;;;;;;;;;;5073843;28;20013;-51
2023/07/01 06:03:41;;;;;;;16.60;11.13;;;;;;;;;;5074816;28;20538;-55
2023/07/01 06:06:07;;;;;;;18.17;11.52;;;;;;;;;;5074710;28;20029;-56
2023/07/01 06:08:33;;;;;;;17.50;11.07;;;;;;;;;;5074753;28;20100;-53
2023/07/01 06:10:59;;;;;;;16.30;10.10;;;;;;;;;;5074752;28;20432;-53
2023/07/01 06:13:25;;;;;;;16.80;11.23;;;;;;;;;;5074516;28;20025;-58
2023/07/01 06:15:51;;;;;;;18.50;11.13;;;;;;;;;;5074514;28;20411;-58
2023/07/01 06:18:17;;;;;;;16.10;10.73;;;;;;;;;;5074679;28;20035;-57
2023/07/01 06:20:43;;;;;;;17.95;10.68;;;;;;;;;;5074625;28;20459;-58
2023/07/01 06:23:09;;;;;;;16.83;10.25;;;;;;;;;;5074490;28;20101;-58
2023/07/01 06:25:35;;;;;;;17.05;11.10;;;;;;;;;;5074573;28;20035;-58
2023/07/01 06:28:01;;;;;;;16.45;10.65;;;;;;;;;;5074364;28;20028;-57
2023/07/01 06:30:27;;;;;;;16.42;10.23;;;;;;;;;;5074394;28;20028;-51
2023/07/01 06:32:53;;;;;;;19.52;11.27;;;;;;;;;;5074028;28;20055;-56
2023/07/01 06:35:19;;;;;;;17.38;10.30;;;;;;;;;;5073970;28;20028;-53
2023/07/01 06:37:45;;;;;;;20.80;11.30;;;;;;;;;;5074297;28;20025;-56
2023/07/01 06:40:12;;;;;;;19.08;9.95;;;;;;;;;;5074096;28;20024;-56
2023/07/01 06:42:38;;;;;;;17.90;10.05;;;;;;;;;;5073917;28;20033;-56
2023/07/01 06:45:04;;;;;;;17.08;10.77;;;;;;;;;;5074094;28;20035;-58
2023/07/01 06:47:30;;;;;;;16.05;9.73;;;;;;;;;;5073785;28;20025;-55
2023/07/01 06:49:56;;;;;;;17.02;9.55;;;;;;;;;;5072721;28;20029;-57
2023/07/01 06:52:22;;;;;;;15.77;9.35;;;;;;;;;;5073780;28;20028;-55
2023/07/01 06:54:48;;;;;;;18.23;9.15;;;;;;;;;;5073567;28;20491;-55
2023/07/01 06:57:14;;;;;;;17.30;9.30;;;;;;;;;;5073922;28;20166;-57
2023/07/01 06:59:40;;;;;;;16.33;9.00;;;;;;;;;;5073675;28;20487;-56
2023/07/01 07:02:06;;;;;;;16.20;9.45;;;;;;;;;;5079015;28;20035;-58
2023/07/01 07:04:32;;;;;;;18.88;9.40;;;;;;;;;;5076109;28;20033;-52
2023/07/01 07:06:58;;;;;;;16.27;10.00;;;;;;;;;;5084356;28;20439;-53
2023/07/01 07:09:24;;;;;;;16.20;9.02;;;;;;;;;;5093849;28;20039;-56
2023/07/01 07:11:54;;;;;;;16.63;8.98;;;;;;;;;;5075992;28;20021;-47
2023/07/01 07:14:21;;;;;;;17.65;9.60;;;;;;;;;;5072943;28;20030;-49
2023/07/01 07:16:47;;;;;;;16.98;9.23;;;;;;;;;;5073355;28;20025;-49
2023/07/01 07:19:13;;;;;;;16.23;9.55;;;;;;;;;;5080934;28;20039;-47
2023/07/01 07:21:39;;;;;;;17.67;9.13;;;;;;;;;;5092270;28;20078;-49
2023/07/01 07:24:05;;;;;;;16.42;9.20;;;;;;;;;;5093088;28;20025;-47
2023/07/01 07:26:33;;;;;;;19.10;9.55;;;;;;;;;;5093321;28;20028;-50
2023/07/01 07:28:59;;;;;;;16.63;9.57;;;;;;;;;;5093321;28;20035;-48
2023/07/01 07:31:25;;;;;;;15.88;8.63;;;;;;;;;;5091990;28;20069;-46
2023/07/01 07:33:51;;;;;;;16.48;9.05;;;;;;;;;;5092877;28;20016;-48
2023/07/01 07:36:17;;;;;;;18.10;9.20;;;;;;;;;;5087020;28;20038;-48
2023/07/01 07:38:43;;;;;;;15.93;8.80;;;;;;;;;;5079366;28;20020;-48
2023/07/01 07:41:11;;;;;;;16.17;8.23;;;;;;;;;;5083583;28;20023;-48
2023/07/01 07:43:36;;;;;;;17.58;8.63;;;;;;;;;;5084139;28;20051;-45
2023/07/01 07:46:03;;;;;;;16.20;8.45;;;;;;;;;;5083998;28;20373;-48
2023/07/01 07:48:28;;;;;;;16.55;8.10;;;;;;;;;;5093042;28;20052;-51
2023/07/01 07:50:54;;;;;;;17.60;8.88;;;;;;;;;;5091134;28;20070;-50
2023/07/01 07:53:21;;;;;;;16.33;8.02;;;;;;;;;;5088890;28;20031;-47
2023/07/01 07:55:47;;;;;;;16.98;8.43;;;;;;;;;;5085392;28;20020;-49
2023/07/01 07:58:13;;;;;;;19.75;8.55;;;;;;;;;;5083974;28;20077;-46
2023/07/01 08:00:39;;;;;;;15.40;8.30;;;;;;;;;;5082818;28;20025;-52
2023/07/01 08:03:05;;;;;;;17.70;8.65;;;;;;;;;;5088716;28;20443;-51
2023/07/01 08:05:31;;;;;;;17.42;8.70;;;;;;;;;;5078902;28;20035;-50
2023/07/01 08:07:57;;;;;;;15.63;8.38;;;;;;;;;;5070523;28;20477;-50
2023/07/01 08:10:23;;;;;;;14.77;7.75;;;;;;;;;;5070680;28;20048;-49
2023/07/01 08:12:49;;;;;;;22.85;8.90;;;;;;;;;;5071311;28;20562;-49
2023/07/01 08:15:15;;;;;;;17.25;8.30;;;;;;;;;;5071264;28;20023;-50
2023/07/01 08:17:42;;;;;;;15.60;7.97;;;;;;;;;;5069970;28;20522;-49
2023/07/01 08:20:09;;;;;;;16.42;8.93;;;;;;;;;;5071354;28;20040;-51
2023/07/01 08:22:35;;;;;;;18.05;8.52;;;;;;;;;;5072017;28;20455;-53
2023/07/01 08:25:01;;;;;;;18.02;8.48;;;;;;;;;;5071750;28;20097;-51
2023/07/01 08:27:27;;;;;;;16.38;8.27;;;;;;;;;;5071994;28;20028;-52
2023/07/01 08:29:53;;;;;;;15.95;8.15;;;;;;;;;;5072150;28;20070;-50
2023/07/01 08:32:19;;;;;;;16.63;8.05;;;;;;;;;;5071588;28;20033;-53
2023/07/01 08:34:44;;;;;;;15.63;7.75;;;;;;;;;;5071599;28;20025;-53
2023/07/01 08:37:10;;;;;;;17.63;8.30;;;;;;;;;;5071563;28;20031;-51
2023/07/01 08:39:36;;;;;;;15.55;7.68;;;;;;;;;;5070402;28;20078;-55
2023/07/01 08:42:04;;;;;;;16.98;8.50;;;;;;;;;;5079327;28;20028;-54
2023/07/01 08:44:31;;;;;;;16.38;8.93;;;;;;;;;;5081420;28;20036;-51
2023/07/01 08:46:58;;;;;;;17.33;8.30;;;;;;;;;;5080149;28;20056;-52
2023/07/01 08:49:24;;;;;;;15.93;8.18;;;;;;;;;;5080323;28;20020;-51
2023/07/01 08:52:08;;;;;;;18.58;7.88;;;;;;;;;;5081578;28;20162;-52
2023/07/01 08:54:34;;;;;;;18.60;8.88;;;;;;;;;;5091485;28;20016;-52
2023/07/01 08:57:01;;;;;;;22.90;8.30;;;;;;;;;;5091840;28;20052;-54
2023/07/01 08:59:28;;;;;;;14.85;8.10;;;;;;;;;;5091675;28;20035;-53
2023/07/01 09:01:54;;;;;;;16.15;8.70;;;;;;;;;;5090387;28;20024;-55
2023/07/01 09:04:20;;;;;;;16.95;9.00;;;;;;;;;;5091232;28;20089;-51
2023/07/01 09:06:47;;;;;;;20.23;8.85;;;;;;;;;;5091850;28;20433;-52
2023/07/01 09:09:13;;;;;;;17.35;8.48;;;;;;;;;;5090491;28;20024;-53
2023/07/01 09:11:39;;;;;;;16.08;8.30;;;;;;;;;;5091502;28;20373;-46
2023/07/01 09:14:05;;;;;;;16.50;8.32;;;;;;;;;;5091494;28;20027;-50
2023/07/01 09:16:35;;;;;;;16.42;8.82;;;;;;;;;;5091191;28;20024;-51
2023/07/01 09:19:08;;;;;;;15.45;8.18;;;;;;;;;;5091421;28;20027;-53
2023/07/01 09:21:34;;;;;;;16.90;9.27;;;;;;;;;;5091291;28;20097;-51
2023/07/01 09:24:00;;;;;;;17.50;8.35;;;;;;;;;;5090959;28;20601;-49
2023/07/01 09:26:30;;;;;;;16.42;8.73;;;;;;;;;;5091275;28;20023;-52
2023/07/01 09:28:56;;;;;;;16.92;9.38;;;;;;;;;;5091292;28;20020;-50
2023/07/01 09:31:22;;;;;;;16.77;9.43;;;;;;;;;;5094117;28;20031;-50
2023/07/01 09:33:58;;;;;;;17.02;9.02;;;;;;;;;;5093971;28;20443;-54
2023/07/01 09:36:25;;;;;;;17.83;10.25;;;;;;;;;;5095469;28;20020;-49
2023/07/01 09:38:51;;;;;;;16.20;9.73;;;;;;;;;;5095725;28;20057;-50
2023/07/01 09:41:19;;;;;;;16.30;9.20;;;;;;;;;;5095243;28;20016;-52
2023/07/01 09:43:45;;;;;;;17.25;9.35;;;;;;;;;;5093653;28;20028;-55
2023/07/01 09:46:11;;;;;;;15.98;8.73;;;;;;;;;;5095407;28;20032;-53
2023/07/01 09:48:37;;;;;;;18.00;9.88;;;;;;;;;;5095331;28;20059;-54
2023/07/01 09:51:04;;;;;;;18.48;9.05;;;;;;;;;;5088457;28;20048;-53
2023/07/01 09:53:35;;;;;;;17.58;8.35;;;;;;;;;;5089702;28;20526;-46
2023/07/01 09:56:03;;;;;;;15.32;8.02;;;;;;;;;;5088727;28;20028;-53
2023/07/01 09:58:29;;;;;;;18.00;9.02;;;;;;;;;;5086913;28;20470;-49
2023/07/01 10:00:57;;;;;;;16.50;7.43;;;;;;;;;;5095292;28;20021;-51
2023/07/01 10:03:24;;;;;;;14.57;7.32;;;;;;;;;;5094743;28;20027;-50
2023/07/01 10:05:51;;;;;;;14.20;7.30;;;;;;;;;;5090456;28;20253;-54
2023/07/01 10:08:17;;;;;;;14.98;8.10;;;;;;;;;;5089985;28;20152;-54
2023/07/01 10:10:43;;;;;;;14.98;7.25;;;;;;;;;;5088007;28;20077;-52
2023/07/01 10:13:09;;;;;;;15.27;7.75;;;;;;;;;;5079960;28;20032;-50
2023/07/01 10:15:38;;;;;;;14.82;7.75;;;;;;;;;;5094584;28;20032;-49
2023/07/01 10:18:05;;;;;;;;;;;;;;;;;;5095181;28;20024;-50
2023/07/01 10:20:32;;;;;;;16.38;8.07;;;;;;;;;;5094832;28;20379;-54
2023/07/01 10:22:59;;;;;;;16.35;8.95;;;;;;;;;;5094640;28;20020;-54
2023/07/01 10:25:43;;;;;;;15.27;8.40;;;;;;;;;;5094221;28;20016;-55
2023/07/01 10:28:09;;;;;;;15.02;7.68;;;;;;;;;;5094490;28;20024;-52
2023/07/01 10:30:42;;;;;;;17.30;7.80;;;;;;;;;;5094357;28;20028;-52
2023/07/01 10:33:26;;;;;;;14.48;7.60;;;;;;;;;;5093981;28;20076;-52
2023/07/01 10:36:03;;;;;;;13.82;7.13;;;;;;;;;;5094081;28;20031;-54
2023/07/01 10:38:32;;;;;;;14.55;7.25;;;;;;;;;;5094111;28;20129;-51
2023/07/01 10:40:58;;;;;;;15.05;7.30;;;;;;;;;;5093032;28;20020;-53
2023/07/01 10:43:33;;;;;;;14.57;7.60;;;;;;;;;;5093069;28;20035;-54
2023/07/01 10:46:23;;;;;;;16.48;7.65;;;;;;;;;;5089494;28;20021;-52
2023/07/01 10:49:04;;;;;;;14.35;7.53;;;;;;;;;;5075097;28;20043;-49
2023/07/01 10:51:50;;;;;;;14.98;7.43;;;;;;;;;;5094039;28;20103;-50
2023/07/01 10:54:29;;;;;;;14.63;7.90;;;;;;;;;;5079784;28;20037;-54
2023/07/01 10:57:15;;;;;;;14.45;7.90;;;;;;;;;;5090250;28;20036;-51
2023/07/01 10:59:42;;;;;;;14.88;7.43;;;;;;;;;;4740030;28;10000231;-55
2023/07/01 11:02:08;;;;;;;14.80;8.30;;;;;;;;;;5084437;28;20032;-52
2023/07/01 11:04:53;;;;;;;16.42;9.68;;;;;;;;;;5090525;28;20024;-53
2023/07/01 11:07:28;;;;;;;16.27;10.00;;;;;;;;;;5080110;28;20025;-49
2023/07/01 11:09:55;;;;;;;15.85;10.93;;;;;;;;;;4728112;28;10000036;-54
2023/07/01 11:12:21;;;;;;;17.17;11.63;;;;;;;;;;5090614;28;20024;-57
2023/07/01 11:14:47;;;;;;;16.20;11.35;;;;;;;;;;5087253;28;20124;-52
2023/07/01 11:17:13;;;;;;;16.30;11.18;;;;;;;;;;5085320;28;20022;-54
2023/07/01 11:19:39;;;;;;;16.42;10.80;;;;;;;;;;5090382;28;20107;-57
2023/07/01 11:22:06;;;;;;;16.25;10.23;;;;;;;;;;5090854;28;20103;-53
2023/07/01 11:24:32;;;;;;;15.82;10.07;;;;;;;;;;5090296;28;20069;-54
2023/07/01 11:27:02;;;;;;;17.17;10.60;;;;;;;;;;5090374;28;20024;-55
2023/07/01 11:29:29;;;;;;;16.55;10.85;;;;;;;;;;5082405;28;20059;-51
2023/07/01 11:31:59;;;;;;;16.70;10.30;;;;;;;;;;5090311;28;20111;-52
2023/07/01 11:34:26;;;;;;;15.48;10.27;;;;;;;;;;5089665;28;20020;-51
2023/07/01 11:36:52;;;;;;;16.48;10.35;;;;;;;;;;5071632;28;20504;-54
2023/07/01 11:39:18;;;;;;;15.88;10.50;;;;;;;;;;5071274;28;20036;-54
2023/07/01 11:41:54;;;;;;;16.27;10.70;;;;;;;;;;4728404;28;10000555;-53
2023/07/01 11:44:27;;;;;;;16.92;10.30;;;;;;;;;;5089757;28;20381;-57
2023/07/01 11:46:54;;;;;;;17.00;10.88;;;;;;;;;;5089660;28;20032;-53
2023/07/01 11:49:24;;;;;;;16.70;10.85;;;;;;;;;;5089863;28;20031;-54
2023/07/01 11:51:51;;;;;;;16.45;10.85;;;;;;;;;;5089528;28;20051;-57
2023/07/01 11:54:18;;;;;;;16.58;10.50;;;;;;;;;;5087778;28;20629;-53
2023/07/01 11:56:44;;;;;;;15.85;10.57;;;;;;;;;;5089684;28;20024;-53
2023/07/01 11:59:11;;;;;;;15.68;10.77;;;;;;;;;;5089954;28;20057;-52
2023/07/01 12:01:41;;;;;;;16.13;11.25;;;;;;;;;;5089918;28;20070;-55
2023/07/01 12:04:15;;;;;;;16.20;11.13;;;;;;;;;;5088299;28;20040;-56
2023/07/01 12:06:41;;;;;;;16.17;11.45;;;;;;;;;;5089343;28;20024;-57
2023/07/01 12:09:08;;;;;;;16.35;11.20;;;;;;;;;;5090871;28;20019;-55
2023/07/01 12:11:44;;;;;;;16.33;11.25;;;;;;;;;;5091644;28;20016;-55
2023/07/01 12:14:20;;;;;;;15.88;11.02;;;;;;;;;;5091956;28;20105;-54
2023/07/01 12:16:49;;;;;;;16.48;12.05;;;;;;;;;;5092184;28;20020;-51
2023/07/01 12:19:20;;;;;;;16.88;12.68;;;;;;;;;;5092085;28;20404;-52
2023/07/01 12:21:46;;;;;;;17.63;13.00;;;;;;;;;;5092061;28;20027;-55
2023/07/01 12:24:23;;;;;;;16.83;13.50;;;;;;;;;;5091476;28;20020;-52
2023/07/01 12:26:50;;;;;;;18.40;16.40;;;;;;;;;;5092119;28;20095;-53
2023/07/01 12:29:16;;;;;;;19.90;17.80;;;;;;;;;;5091986;28;20157;-55
2023/07/01 12:31:42;;;;;;;21.02;18.90;;;;;;;;;;5091997;28;20073;-54
2023/07/01 12:34:08;;;;;;;20.58;18.58;;;;;;;;;;5091836;28;20509;-53
2023/07/01 12:36:35;;;;;;;20.45;18.45;;;;;;;;;;5091674;28;20111;-55
2023/07/01 12:39:02;;;;;;;23.08;20.98;;;;;;;;;;5091834;28;20047;-49
2023/07/01 12:41:29;;;;;;;23.15;20.95;;;;;;;;;;5091804;28;20099;-51
2023/07/01 12:43:55;;;;;;;23.88;21.67;;;;;;;;;;5092942;28;20035;-56
2023/07/01 12:46:21;;;;;;;26.42;24.02;;;;;;;;;;5093894;28;20020;-58
2023/07/01 12:48:47;;;;;;;29.08;26.67;;;;;;;;;;5094501;28;20149;-54
2023/07/01 12:51:13;;;;;;;30.00;27.60;;;;;;;;;;5094998;28;20476;-57
2023/07/01 12:53:39;;;;;;;29.70;27.30;;;;;;;;;;5091774;28;20031;-55
2023/07/01 12:56:05;;;;;;;29.95;27.55;;;;;;;;;;5091653;28;20089;-51
2023/07/01 12:58:31;;;;;;;29.08;26.77;;;;;;;;;;5091920;28;20020;-50
2023/07/01 13:00:57;;;;;;;28.30;25.98;;;;;;;;;;5091972;28;20301;-52
2023/07/01 13:03:23;;;;;;;28.83;26.42;;;;;;;;;;5091729;28;20391;-50
2023/07/01 13:05:51;;;;;;;28.75;26.45;;;;;;;;;;5091233;28;20035;-58
2023/07/01 13:08:19;;;;;;;29.38;26.98;;;;;;;;;;5092172;28;20024;-54
2023/07/01 13:10:45;;;;;;;29.98;27.48;;;;;;;;;;5092283;28;20055;-50
2023/07/01 13:13:11;;;;;;;29.15;26.75;;;;;;;;;;5091369;28;20096;-50
2023/07/01 13:15:41;;;;;;;28.83;26.38;;;;;;;;;;5091333;28;20028;-50
2023/07/01 13:18:07;;;;;;;29.67;27.17;;;;;;;;;;5091331;28;20027;-51
2023/07/01 13:20:38;;;;;;;27.70;25.27;;;;;;;;;;5091462;28;20127;-51
2023/07/01 13:23:04;;;;;;;28.52;25.92;;;;;;;;;;5089740;28;20024;-49
2023/07/01 13:25:30;;;;;;;27.20;24.80;;;;;;;;;;5091101;28;20099;-54
2023/07/01 13:27:56;;;;;;;28.05;25.48;;;;;;;;;;5091325;28;20384;-56
2023/07/01 13:30:33;;;;;;;27.10;24.70;;;;;;;;;;5091217;28;20103;-51
2023/07/01 13:33:02;;;;;;;26.73;24.23;;;;;;;;;;5090799;28;20467;-50
2023/07/01 13:35:29;;;;;;;27.50;25.00;;;;;;;;;;5090848;28;20023;-50
2023/07/01 13:38:01;;;;;;;27.38;24.77;;;;;;;;;;5091301;28;20059;-54
2023/07/01 13:40:27;;;;;;;26.98;24.48;;;;;;;;;;5089585;28;20020;-54
2023/07/01 13:42:53;;;;;;;28.50;25.90;;;;;;;;;;5091238;28;20057;-55
2023/07/01 13:45:23;;;;;;;28.98;26.08;;;;;;;;;;5087732;28;20032;-51
2023/07/01 13:47:50;;;;;;;28.67;26.08;;;;;;;;;;5091250;28;20430;-56
2023/07/01 13:50:25;;;;;;;26.35;23.90;;;;;;;;;;5091556;28;20031;-54
2023/07/01 13:52:56;;;;;;;27.13;24.63;;;;;;;;;;5087945;28;20036;-53
2023/07/01 13:55:22;;;;;;;26.67;24.17;;;;;;;;;;5082051;28;20049;-51
2023/07/01 13:57:50;;;;;;;26.92;24.45;;;;;;;;;;5086637;28;20354;-52
2023/07/01 14:00:36;;;;;;;25.42;22.85;;;;;;;;;;5085895;28;20030;-54
2023/07/01 14:03:07;;;;;;;22.98;20.58;;;;;;;;;;5070857;28;20032;-51
2023/07/01 14:05:35;;;;;;;22.50;20.10;;;;;;;;;;5072214;28;20028;-51
2023/07/01 14:08:01;;;;;;;20.85;17.83;;;;;;;;;;5070743;28;20032;-51
2023/07/01 14:10:29;;;;;;;20.75;18.55;;;;;;;;;;5085308;28;20024;-57
2023/07/01 14:12:55;;;;;;;21.17;18.50;;;;;;;;;;5086233;28;20024;-55
2023/07/01 14:15:32;;;;;;;21.20;18.33;;;;;;;;;;5080110;28;20024;-52
2023/07/01 14:17:58;;;;;;;21.33;17.45;;;;;;;;;;5092219;28;20073;-52
2023/07/01 14:20:24;;;;;;;19.77;15.50;;;;;;;;;;5094219;28;20016;-48
2023/07/01 14:22:58;;;;;;;19.45;14.80;;;;;;;;;;5093572;28;20074;-54